Time;durP1;ratioP1;P1;durP2;ratioP2;P2;SDS_P1;SDS_P2;PMS_P1;PMS_P2;Temp;Humidity;BMP_temperature;BMP_pressure;BME280_temperature;BME280_humidity;BME280_pressure;Samples;Min_cycle;Max_cycle;Signal;HPM_P1;HPM_P2
2021/08/14 00:01:12;;;;;;;;;;;20.80;99.90;;;;;;4952949;29;19930;-75
2021/08/14 00:03:44;;;;;;;;;;;20.80;99.90;;;;;;4953174;28;19933;-75
2021/08/14 00:06:15;;;;;;;;;;;20.90;99.90;;;;;;4954525;28;19954;-75
2021/08/14 00:08:45;;;;;;;;;;;20.90;99.90;;;;;;4953304;29;19931;-75
2021/08/14 00:11:12;;;;;;;;;;;20.90;99.90;;;;;;4953017;29;19933;-75
2021/08/14 00:13:39;;;;;;;;;;;21.00;99.90;;;;;;4953030;29;19926;-75
2021/08/14 00:16:08;;;;;;;;;;;20.90;99.90;;;;;;4953170;29;19926;-76
2021/08/14 00:18:40;;;;;;;;;;;20.90;99.90;;;;;;4953208;29;19926;-75
2021/08/14 00:21:07;;;;;;;;;;;20.90;99.90;;;;;;4968913;28;19927;-76
2021/08/14 00:23:35;;;;;;;;;;;20.90;99.90;;;;;;4953218;28;19926;-76
2021/08/14 00:26:08;;;;;;;;;;;20.90;99.90;;;;;;4953043;29;19930;-75
2021/08/14 00:28:36;;;;;;;;;;;20.80;99.90;;;;;;4954396;29;19934;-76
2021/08/14 00:31:03;;;;;;;;;;;20.80;99.90;;;;;;4952480;29;19931;-75
2021/08/14 00:33:35;;;;;;;;;;;20.70;99.90;;;;;;4968033;28;19961;-75
2021/08/14 00:36:02;;;;;;;;;;;20.60;99.90;;;;;;4952642;29;19933;-76
2021/08/14 00:38:29;;;;;;;;;;;20.60;99.90;;;;;;4952779;28;19950;-76
2021/08/14 00:40:57;;;;;;;;;;;20.60;99.90;;;;;;4952716;29;19926;-76
2021/08/14 00:43:30;;;;;;;;;;;20.50;99.90;;;;;;4953580;28;20401;-76
2021/08/14 00:45:58;;;;;;;;;;;20.50;99.90;;;;;;4954039;28;20037;-75
2021/08/14 00:48:30;;;;;;;;;;;20.50;99.90;;;;;;4968725;28;19926;-75
2021/08/14 00:51:05;;;;;;;;;;;20.50;99.90;;;;;;4952339;29;20025;-75
2021/08/14 00:53:37;;;;;;;;;;;20.50;99.90;;;;;;4968091;28;19965;-76
2021/08/14 00:56:04;;;;;;;;;;;20.40;99.90;;;;;;4968160;28;19927;-75
2021/08/14 00:58:31;;;;;;;;;;;20.40;99.90;;;;;;4968809;28;20338;-76
2021/08/14 01:00:58;;;;;;;;;;;20.40;99.90;;;;;;4967829;28;19937;-75
2021/08/14 01:03:31;;;;;;;;;;;20.40;99.90;;;;;;4952118;29;20029;-75
2021/08/14 01:06:03;;;;;;;;;;;20.30;99.90;;;;;;4937013;29;19926;-75
2021/08/14 01:08:29;;;;;;;;;;;20.30;99.90;;;;;;4953284;29;19926;-75
2021/08/14 01:11:02;;;;;;;;;;;20.20;99.90;;;;;;4967682;28;19974;-75
2021/08/14 01:13:31;;;;;;;;;;;20.20;99.90;;;;;;4952423;28;19927;-75
2021/08/14 01:15:58;;;;;;;;;;;20.20;99.90;;;;;;4956335;29;19968;-75
2021/08/14 01:18:24;;;;;;;;;;;20.20;99.90;;;;;;4956203;28;20288;-75
2021/08/14 01:20:56;;;;;;;;;;;20.10;99.90;;;;;;4955629;29;19926;-75
2021/08/14 01:23:23;;;;;;;;;;;20.10;99.90;;;;;;4971650;28;20017;-75
2021/08/14 01:25:59;;;;;;;;;;;20.00;99.90;;;;;;4955407;29;19950;-75
2021/08/14 01:28:26;;;;;;;;;;;20.00;99.90;;;;;;4955829;28;20017;-75
2021/08/14 01:30:53;;;;;;;;;;;20.10;99.90;;;;;;4971590;28;19938;-75
2021/08/14 01:33:20;;;;;;;;;;;20.10;99.90;;;;;;4956840;29;20416;-75
2021/08/14 01:35:46;;;;;;;;;;;20.00;99.90;;;;;;4972132;28;20013;-75
2021/08/14 01:38:13;;;;;;;;;;;19.90;99.90;;;;;;4972006;28;20412;-75
2021/08/14 01:40:40;;;;;;;;;;;19.80;99.90;;;;;;4971556;28;20405;-75
2021/08/14 01:43:06;;;;;;;;;;;19.80;99.90;;;;;;4955627;29;19927;-75
2021/08/14 01:45:40;;;;;;;;;;;19.80;99.90;;;;;;4956066;29;19927;-75
2021/08/14 01:48:14;;;;;;;;;;;19.80;99.90;;;;;;4972012;28;19930;-75
2021/08/14 01:50:41;;;;;;;;;;;19.80;99.90;;;;;;4971843;28;20021;-75
2021/08/14 01:53:14;;;;;;;;;;;19.70;99.90;;;;;;4955249;29;19997;-75
2021/08/14 01:55:46;;;;;;;;;;;19.70;99.90;;;;;;4970985;28;19933;-75
2021/08/14 01:58:12;;;;;;;;;;;19.70;99.90;;;;;;4971745;28;19964;-75
2021/08/14 02:00:39;;;;;;;;;;;19.60;99.90;;;;;;4955586;28;19934;-75
2021/08/14 02:03:06;;;;;;;;;;;19.70;99.90;;;;;;4952631;29;20025;-75
2021/08/14 02:05:33;;;;;;;;;;;19.70;99.90;;;;;;4951680;29;20820;-75
2021/08/14 02:08:00;;;;;;;;;;;19.70;99.90;;;;;;4970674;28;20012;-75
2021/08/14 02:10:31;;;;;;;;;;;19.70;99.90;;;;;;4971595;28;19965;-75
2021/08/14 02:12:58;;;;;;;;;;;19.70;99.90;;;;;;4953877;28;20443;-75
2021/08/14 02:15:29;;;;;;;;;;;19.60;99.90;;;;;;4970819;28;19976;-75
2021/08/14 02:18:02;;;;;;;;;;;19.70;99.90;;;;;;4955576;28;19927;-74
2021/08/14 02:20:29;;;;;;;;;;;19.70;99.90;;;;;;4971428;28;19969;-75
2021/08/14 02:23:01;;;;;;;;;;;19.60;99.90;;;;;;4971112;28;19926;-75
2021/08/14 02:25:33;;;;;;;;;;;19.60;99.90;;;;;;4954928;28;19968;-75
2021/08/14 02:27:59;;;;;;;;;;;19.70;99.90;;;;;;4971184;28;20017;-75
2021/08/14 02:30:26;;;;;;;;;;;19.70;99.90;;;;;;4971124;28;19968;-75
2021/08/14 02:32:58;;;;;;;;;;;19.70;99.90;;;;;;4954492;29;20017;-75
2021/08/14 02:35:25;;;;;;;;;;;19.70;99.90;;;;;;4955070;29;20367;-75
2021/08/14 02:37:51;;;;;;;;;;;19.60;99.90;;;;;;4954863;29;19966;-75
2021/08/14 02:40:23;;;;;;;;;;;19.60;99.90;;;;;;4954789;29;19926;-75
2021/08/14 02:42:50;;;;;;;;;;;19.60;99.90;;;;;;4954675;28;19969;-75
2021/08/14 02:45:16;;;;;;;;;;;19.60;99.90;;;;;;4954988;29;20241;-75
2021/08/14 02:47:43;;;;;;;;;;;19.60;99.90;;;;;;4954569;29;20393;-75
2021/08/14 02:50:10;;;;;;;;;;;19.60;99.90;;;;;;4954733;29;20050;-75
2021/08/14 02:52:41;;;;;;;;;;;19.70;99.90;;;;;;4955197;28;20013;-75
2021/08/14 02:55:08;;;;;;;;;;;19.70;99.90;;;;;;4954644;28;19930;-75
2021/08/14 02:57:35;;;;;;;;;;;19.60;99.90;;;;;;4970332;28;19973;-74
2021/08/14 03:00:02;;;;;;;;;;;19.60;99.90;;;;;;4954761;28;20044;-75
2021/08/14 03:02:34;;;;;;;;;;;19.60;99.90;;;;;;4954223;29;20054;-75
2021/08/14 03:05:06;;;;;;;;;;;19.50;99.90;;;;;;4939256;29;19949;-75
2021/08/14 03:07:39;;;;;;;;;;;19.50;99.90;;;;;;4970459;28;19927;-75
2021/08/14 03:10:06;;;;;;;;;;;19.50;99.90;;;;;;4970669;28;20021;-75
2021/08/14 03:12:37;;;;;;;;;;;19.50;99.90;;;;;;4969510;28;20028;-75
2021/08/14 03:15:05;;;;;;;;;;;19.50;99.90;;;;;;4954252;29;19992;-75
2021/08/14 03:17:31;;;;;;;;;;;19.50;99.90;;;;;;4954050;29;19932;-75
2021/08/14 03:20:04;;;;;;;;;;;19.50;99.90;;;;;;4954818;28;19965;-74
2021/08/14 03:22:36;;;;;;;;;;;19.50;99.90;;;;;;4969299;28;20385;-75
2021/08/14 03:25:03;;;;;;;;;;;19.50;99.90;;;;;;4970224;28;20021;-75
2021/08/14 03:27:36;;;;;;;;;;;19.50;99.90;;;;;;4954170;29;19970;-75
2021/08/14 03:30:08;;;;;;;;;;;19.50;99.90;;;;;;4954722;28;19926;-75
2021/08/14 03:32:35;;;;;;;;;;;19.60;99.90;;;;;;4953656;29;19931;-75
2021/08/14 03:35:07;;;;;;;;;;;19.60;99.90;;;;;;4954491;28;19935;-75
2021/08/14 03:37:33;;;;;;;;;;;19.60;99.90;;;;;;4954861;28;19936;-75
2021/08/14 03:40:00;;;;;;;;;;;19.60;99.90;;;;;;4953894;28;20406;-75
2021/08/14 03:42:27;;;;;;;;;;;19.60;99.90;;;;;;4953398;29;20421;-75
2021/08/14 03:44:58;;;;;;;;;;;19.70;99.90;;;;;;4953580;29;20026;-75
2021/08/14 03:47:30;;;;;;;;;;;19.70;99.90;;;;;;4969645;28;20377;-75
2021/08/14 03:50:02;;;;;;;;;;;19.70;99.90;;;;;;4954434;28;20393;-75
2021/08/14 03:52:35;;;;;;;;;;;19.60;99.90;;;;;;4968767;28;19968;-75
2021/08/14 03:55:02;;;;;;;;;;;19.60;99.90;;;;;;4969861;28;20308;-75
2021/08/14 03:57:29;;;;;;;;;;;19.60;99.90;;;;;;4953568;29;19981;-75
2021/08/14 03:59:56;;;;;;;;;;;19.60;99.90;;;;;;4937606;29;19928;-75
2021/08/14 04:02:23;;;;;;;;;;;19.60;99.90;;;;;;4953150;29;19934;-75
2021/08/14 04:04:50;;;;;;;;;;;19.60;99.90;;;;;;4953596;29;19993;-75
2021/08/14 04:07:22;;;;;;;;;;;19.60;99.90;;;;;;4953437;29;20018;-75
2021/08/14 04:09:49;;;;;;;;;;;19.50;99.90;;;;;;4969436;28;20026;-75
2021/08/14 04:12:20;;;;;;;;;;;19.50;99.90;;;;;;4954467;29;19930;-75
2021/08/14 04:14:49;;;;;;;;;;;19.50;99.90;;;;;;4953244;29;19973;-75
2021/08/14 04:17:16;;;;;;;;;;;19.40;99.90;;;;;;4969357;28;19926;-75
2021/08/14 04:19:43;;;;;;;;;;;19.50;99.90;;;;;;4953161;28;19970;-75
2021/08/14 04:22:14;;;;;;;;;;;19.50;99.90;;;;;;4953128;29;20017;-75
2021/08/14 04:24:46;;;;;;;;;;;19.50;99.90;;;;;;4953245;29;20313;-75
2021/08/14 04:27:13;;;;;;;;;;;19.50;99.90;;;;;;4952964;29;19965;-75
2021/08/14 04:29:39;;;;;;;;;;;19.50;99.90;;;;;;4953089;29;19930;-75
2021/08/14 04:32:11;;;;;;;;;;;19.60;99.90;;;;;;4953084;29;19976;-75
2021/08/14 04:34:38;;;;;;;;;;;19.60;99.90;;;;;;4953130;28;19973;-75
2021/08/14 04:37:04;;;;;;;;;;;19.60;99.90;;;;;;4968889;28;19966;-75
2021/08/14 04:39:31;;;;;;;;;;;19.60;99.90;;;;;;4969097;28;19972;-75
2021/08/14 04:41:58;;;;;;;;;;;19.60;99.90;;;;;;4952747;29;19927;-75
2021/08/14 04:44:29;;;;;;;;;;;19.60;99.90;;;;;;4953735;28;19948;-75
2021/08/14 04:46:59;;;;;;;;;;;19.60;99.90;;;;;;4951247;28;20421;-75
2021/08/14 04:49:31;;;;;;;;;;;19.60;99.90;;;;;;4956906;28;19927;-75
2021/08/14 04:51:58;;;;;;;;;;;19.50;99.90;;;;;;4959186;28;20377;-75
2021/08/14 04:54:29;;;;;;;;;;;19.50;99.90;;;;;;4943716;29;20013;-75
2021/08/14 04:56:56;;;;;;;;;;;19.50;99.90;;;;;;4958772;28;19950;-75
2021/08/14 04:59:23;;;;;;;;;;;19.50;99.90;;;;;;4959203;29;20292;-75
2021/08/14 05:01:49;;;;;;;;;;;19.50;99.90;;;;;;4958673;28;19927;-75
2021/08/14 05:04:23;;;;;;;;;;;19.60;99.90;;;;;;4975417;28;19949;-75
2021/08/14 05:06:50;;;;;;;;;;;19.60;99.90;;;;;;4974661;28;19966;-75
2021/08/14 05:09:22;;;;;;;;;;;19.60;99.90;;;;;;4974804;28;20431;-75
2021/08/14 05:11:54;;;;;;;;;;;19.70;99.90;;;;;;4952361;29;19927;-75
2021/08/14 05:14:20;;;;;;;;;;;19.70;99.90;;;;;;4950148;28;19973;-75
2021/08/14 05:16:52;;;;;;;;;;;19.70;99.90;;;;;;4972266;28;19969;-75
2021/08/14 05:19:19;;;;;;;;;;;19.80;99.90;;;;;;4943650;29;19926;-75
2021/08/14 05:21:45;;;;;;;;;;;19.80;99.90;;;;;;4965881;28;19966;-75
2021/08/14 05:24:17;;;;;;;;;;;19.80;99.90;;;;;;4935727;29;20021;-75
2021/08/14 05:26:44;;;;;;;;;;;19.80;99.90;;;;;;4958554;28;20025;-76
2021/08/14 05:29:10;;;;;;;;;;;19.80;99.90;;;;;;4955238;28;20032;-75
2021/08/14 05:31:42;;;;;;;;;;;19.80;99.90;;;;;;4939561;29;19958;-76
2021/08/14 05:34:09;;;;;;;;;;;19.80;99.90;;;;;;4949979;29;19926;-75
2021/08/14 05:36:40;;;;;;;;;;;19.80;99.90;;;;;;4959424;28;19927;-78
2021/08/14 05:39:07;;;;;;;;;;;19.80;99.90;;;;;;4948388;28;20400;-75
2021/08/14 05:41:39;;;;;;;;;;;19.90;99.90;;;;;;4966582;28;20286;-75
2021/08/14 05:44:06;;;;;;;;;;;19.90;99.90;;;;;;4974414;28;19934;-75
2021/08/14 05:46:33;;;;;;;;;;;20.00;99.90;;;;;;4955162;28;20020;-75
2021/08/14 05:49:04;;;;;;;;;;;19.90;99.90;;;;;;4945961;28;19972;-75
2021/08/14 05:51:31;;;;;;;;;;;20.00;99.90;;;;;;4939891;29;20021;-75
2021/08/14 05:53:58;;;;;;;;;;;20.00;99.90;;;;;;4973576;28;19926;-75
2021/08/14 05:56:24;;;;;;;;;;;20.10;99.90;;;;;;4975473;28;19930;-75
2021/08/14 05:58:51;;;;;;;;;;;20.10;99.90;;;;;;4969780;28;20013;-75
2021/08/14 06:01:18;;;;;;;;;;;20.20;99.90;;;;;;4955663;28;20061;-75
2021/08/14 06:03:45;;;;;;;;;;;20.20;99.90;;;;;;4959065;28;19950;-75
2021/08/14 06:06:18;;;;;;;;;;;20.20;99.90;;;;;;4952265;28;20013;-75
2021/08/14 06:08:45;;;;;;;;;;;20.30;99.90;;;;;;4953208;29;19933;-75
2021/08/14 06:11:11;;;;;;;;;;;20.30;99.90;;;;;;4957991;29;19933;-74
2021/08/14 06:13:43;;;;;;;;;;;20.30;99.90;;;;;;4971483;28;19993;-74
2021/08/14 06:16:12;;;;;;;;;;;20.40;99.90;;;;;;4934810;29;19977;-74
2021/08/14 06:18:41;;;;;;;;;;;20.40;99.90;;;;;;4954446;28;20480;-74
2021/08/14 06:21:12;;;;;;;;;;;20.50;99.90;;;;;;4936767;29;20585;-75
2021/08/14 06:23:39;;;;;;;;;;;20.50;99.90;;;;;;4946483;29;19927;-76
2021/08/14 06:26:06;;;;;;;;;;;20.60;99.90;;;;;;4954218;29;20393;-74
2021/08/14 06:28:32;;;;;;;;;;;20.60;99.90;;;;;;4969207;28;20009;-74
2021/08/14 06:31:04;;;;;;;;;;;20.70;99.90;;;;;;4950418;29;19974;-75
2021/08/14 06:33:31;;;;;;;;;;;20.80;99.90;;;;;;4953614;29;19926;-75
2021/08/14 06:36:02;;;;;;;;;;;20.90;99.90;;;;;;4961820;28;19933;-75
2021/08/14 06:38:31;;;;;;;;;;;20.90;99.90;;;;;;4969438;28;19981;-75
2021/08/14 06:41:03;;;;;;;;;;;21.00;99.90;;;;;;4968677;28;19927;-75
2021/08/14 06:43:34;;;;;;;;;;;20.90;99.90;;;;;;4953867;29;20024;-74
2021/08/14 06:46:01;;;;;;;;;;;21.00;99.90;;;;;;4967428;28;19980;-75
2021/08/14 06:48:28;;;;;;;;;;;21.10;99.90;;;;;;4968255;28;20371;-74
2021/08/14 06:50:59;;;;;;;;;;;21.20;99.90;;;;;;4965155;28;19941;-75
2021/08/14 06:53:26;;;;;;;;;;;21.20;99.90;;;;;;4947175;29;20401;-74
2021/08/14 06:55:53;;;;;;;;;;;21.30;99.90;;;;;;4942823;29;19931;-76
2021/08/14 06:58:24;;;;;;;;;;;21.30;99.90;;;;;;4952751;29;19927;-74
2021/08/14 07:00:51;;;;;;;;;;;21.40;99.90;;;;;;4962805;28;19926;-74
2021/08/14 07:03:18;;;;;;;;;;;21.50;99.90;;;;;;4965941;28;19969;-75
2021/08/14 07:05:45;;;;;;;;;;;21.60;99.90;;;;;;4968754;28;19933;-75
2021/08/14 07:08:11;;;;;;;;;;;21.70;99.90;;;;;;4953754;29;19927;-75
2021/08/14 07:10:38;;;;;;;;;;;21.70;99.90;;;;;;4937603;29;19965;-75
2021/08/14 07:13:05;;;;;;;;;;;21.80;99.90;;;;;;4952968;28;19965;-75
2021/08/14 07:15:36;;;;;;;;;;;21.90;99.90;;;;;;4954743;28;20404;-74
2021/08/14 07:18:03;;;;;;;;;;;21.90;99.90;;;;;;4964341;28;20354;-75
2021/08/14 07:20:30;;;;;;;;;;;22.00;99.90;;;;;;4945755;29;19930;-75
2021/08/14 07:22:57;;;;;;;;;;;22.10;99.90;;;;;;4944553;29;19938;-75
2021/08/14 07:25:23;;;;;;;;;;;22.10;99.90;;;;;;4936973;29;19977;-75
2021/08/14 07:27:55;;;;;;;;;;;22.20;99.90;;;;;;4969243;28;19933;-75
2021/08/14 07:30:22;;;;;;;;;;;22.30;99.90;;;;;;4953190;29;20029;-75
2021/08/14 07:32:54;;;;;;;;;;;22.40;99.90;;;;;;4953350;29;19934;-74
2021/08/14 07:35:20;;;;;;;;;;;22.40;99.90;;;;;;4945386;29;20030;-73
2021/08/14 07:37:51;;;;;;;;;;;22.50;99.90;;;;;;4967890;28;19931;-75
2021/08/14 07:40:24;;;;;;;;;;;22.60;99.90;;;;;;4969484;28;19926;-75
2021/08/14 07:42:51;;;;;;;;;;;22.70;99.90;;;;;;4968354;28;19962;-75
2021/08/14 07:45:23;;;;;;;;;;;22.80;99.90;;;;;;4958380;28;19934;-75
2021/08/14 07:47:51;;;;;;;;;;;22.90;99.90;;;;;;4949114;29;20025;-74
2021/08/14 07:50:26;;;;;;;;;;;23.00;99.90;;;;;;4951505;29;19926;-74
2021/08/14 07:52:59;;;;;;;;;;;23.00;99.90;;;;;;4952796;28;20033;-73
2021/08/14 07:55:27;;;;;;;;;;;23.20;99.90;;;;;;4950593;29;19931;-74
2021/08/14 07:57:59;;;;;;;;;;;23.20;99.90;;;;;;4953370;28;19934;-74
2021/08/14 08:00:31;;;;;;;;;;;23.40;99.90;;;;;;4952620;29;20033;-74
2021/08/14 08:03:02;;;;;;;;;;;23.40;99.90;;;;;;4949617;29;19930;-75
2021/08/14 08:05:34;;;;;;;;;;;23.60;99.90;;;;;;4944379;29;20282;-73
2021/08/14 08:08:07;;;;;;;;;;;23.60;99.90;;;;;;4952121;29;20017;-74
2021/08/14 08:10:34;;;;;;;;;;;23.70;99.90;;;;;;4952320;28;19958;-74
2021/08/14 08:13:01;;;;;;;;;;;23.80;99.90;;;;;;4964721;28;19932;-76
2021/08/14 08:15:32;;;;;;;;;;;23.80;99.90;;;;;;4944961;29;19930;-73
2021/08/14 08:18:04;;;;;;;;;;;23.90;99.90;;;;;;4932422;29;19934;-73
2021/08/14 08:20:36;;;;;;;;;;;24.00;99.90;;;;;;4933242;29;19957;-73
2021/08/14 08:23:08;;;;;;;;;;;24.00;99.90;;;;;;4933238;28;19974;-74
2021/08/14 08:25:39;;;;;;;;;;;24.10;99.90;;;;;;4945926;29;19933;-75
2021/08/14 08:28:11;;;;;;;;;;;24.30;99.90;;;;;;4933614;29;19933;-74
2021/08/14 08:30:38;;;;;;;;;;;24.30;99.90;;;;;;4946338;29;20329;-74
2021/08/14 08:33:05;;;;;;;;;;;24.40;99.90;;;;;;4941341;29;19952;-75
2021/08/14 08:35:36;;;;;;;;;;;24.50;99.90;;;;;;4968227;28;20294;-75
2021/08/14 08:38:03;;;;;;;;;;;24.50;99.90;;;;;;4950424;28;20394;-75
2021/08/14 08:40:32;;;;;;;;;;;24.60;99.90;;;;;;4966714;28;19957;-74
2021/08/14 08:42:59;;;;;;;;;;;24.70;99.90;;;;;;4951494;28;19927;-75
2021/08/14 08:45:25;;;;;;;;;;;24.80;99.90;;;;;;4953709;28;20024;-74
2021/08/14 08:47:57;;;;;;;;;;;24.80;99.90;;;;;;4966632;28;19927;-75
2021/08/14 08:50:28;;;;;;;;;;;24.90;99.90;;;;;;4951515;29;19974;-74
2021/08/14 08:52:55;;;;;;;;;;;25.00;99.90;;;;;;4928817;29;20488;-75
2021/08/14 08:55:23;;;;;;;;;;;25.10;99.90;;;;;;4950391;29;20413;-74
2021/08/14 08:57:57;;;;;;;;;;;25.20;99.90;;;;;;4939209;29;20278;-75
2021/08/14 09:16:21;;;;;;;;;;;25.70;99.90;;;;;;4927866;29;20557;-74
2021/08/14 09:18:57;;;;;;;;;;;25.80;99.90;;;;;;4919299;29;19961;-74
2021/08/14 09:21:34;;;;;;;;;;;25.90;99.90;;;;;;4929341;29;19965;-73
2021/08/14 09:24:07;;;;;;;;;;;26.00;99.90;;;;;;4939559;28;19931;-75
2021/08/14 09:26:38;;;;;;;;;;;26.00;99.90;;;;;;4929284;29;20041;-74
2021/08/14 09:29:06;;;;;;;;;;;26.10;99.90;;;;;;4931282;29;20030;-74
2021/08/14 09:31:45;;;;;;;;;;;26.10;99.90;;;;;;4916571;29;20538;-75
2021/08/14 09:34:19;;;;;;;;;;;26.20;99.90;;;;;;4932154;29;19927;-75
2021/08/14 09:37:05;;;;;;;;;;;26.20;99.90;;;;;;4935165;29;19998;-75
2021/08/14 09:39:33;;;;;;;;;;;26.30;99.90;;;;;;4937545;29;20021;-75
2021/08/14 09:42:04;;;;;;;;;;;26.40;99.90;;;;;;4951495;29;19931;-73
2021/08/14 09:44:30;;;;;;;;;;;26.50;99.90;;;;;;4936170;29;19970;-75
2021/08/14 09:47:11;;;;;;;;;;;26.60;99.90;;;;;;4935886;29;19934;-74
2021/08/14 09:49:54;;;;;;;;;;;26.60;99.90;;;;;;4937418;29;19953;-75
2021/08/14 09:52:26;;;;;;;;;;;26.60;99.90;;;;;;4935449;29;19939;-75
2021/08/14 09:54:58;;;;;;;;;;;26.70;99.90;;;;;;4936106;29;19933;-75
2021/08/14 09:57:30;;;;;;;;;;;26.80;99.90;;;;;;4951230;29;19927;-75
2021/08/14 09:59:59;;;;;;;;;;;26.90;99.90;;;;;;4937080;29;20025;-75
2021/08/14 10:02:29;;;;;;;;;;;26.90;99.90;;;;;;4952268;29;19965;-74
2021/08/14 10:04:57;;;;;;;;;;;27.00;99.90;;;;;;4936830;29;19927;-74
2021/08/14 10:07:24;;;;;;;;;;;27.00;99.90;;;;;;4935692;29;20021;-74
2021/08/14 10:09:56;;;;;;;;;;;27.00;99.90;;;;;;4935861;29;19974;-74
2021/08/14 10:12:22;;;;;;;;;;;27.00;99.90;;;;;;4950960;29;19927;-75
2021/08/14 10:14:54;;;;;;;;;;;27.10;99.90;;;;;;4935946;29;19927;-74
2021/08/14 10:17:24;;;;;;;;;;;27.20;99.90;;;;;;4951763;29;19927;-74
2021/08/14 10:19:50;;;;;;;;;;;27.30;99.90;;;;;;4935781;29;19933;-74
2021/08/14 10:22:23;;;;;;;;;;;27.40;99.90;;;;;;4935264;29;19942;-74
2021/08/14 10:24:55;;;;;;;;;;;27.50;99.90;;;;;;4935415;29;19927;-74
2021/08/14 10:27:22;;;;;;;;;;;27.50;99.90;;;;;;4935529;29;19933;-75
2021/08/14 10:29:50;;;;;;;;;;;27.50;99.90;;;;;;4935725;29;20386;-73
2021/08/14 10:32:31;;;;;;;;;;;27.50;99.90;;;;;;4935183;29;19926;-74
2021/08/14 10:35:12;;;;;;;;;;;27.60;99.90;;;;;;4919667;29;19926;-74
2021/08/14 10:37:40;;;;;;;;;;;27.60;99.90;;;;;;4930385;29;19926;-74
2021/08/14 10:40:12;;;;;;;;;;;27.60;99.90;;;;;;4918168;29;19933;-74
2021/08/14 10:42:54;;;;;;;;;;;27.70;99.90;;;;;;4934518;29;20016;-73
2021/08/14 10:45:33;;;;;;;;;;;27.80;99.90;;;;;;4927993;29;19937;-74
2021/08/14 10:48:05;;;;;;;;;;;28.00;99.90;;;;;;4933310;29;20008;-74
2021/08/14 10:50:36;;;;;;;;;;;28.00;99.90;;;;;;4925610;29;20379;-74
2021/08/14 10:53:12;;;;;;;;;;;28.10;99.90;;;;;;4910209;29;19927;-74
2021/08/14 10:55:43;;;;;;;;;;;28.10;99.90;;;;;;4929240;29;19927;-73
2021/08/14 10:58:17;;;;;;;;;;;28.20;99.90;;;;;;4926547;29;20017;-74
2021/08/14 11:01:03;;;;;;;;;;;28.20;99.90;;;;;;4926383;29;19934;-74
2021/08/14 11:03:35;;;;;;;;;;;28.30;99.90;;;;;;4932698;29;19934;-73
2021/08/14 11:06:25;;;;;;;;;;;28.30;99.90;;;;;;4928965;29;19949;-74
2021/08/14 11:09:16;;;;;;;;;;;28.40;99.90;;;;;;4931595;29;19949;-74
2021/08/14 11:11:43;;;;;;;;;;;28.50;99.90;;;;;;4932892;29;20029;-74
2021/08/14 11:14:16;;;;;;;;;;;28.50;99.90;;;;;;4935679;29;19931;-74
2021/08/14 11:16:59;;;;;;;;;;;28.50;99.90;;;;;;4939126;29;19927;-74
2021/08/14 11:19:41;;;;;;;;;;;28.50;99.90;;;;;;4914766;29;19927;-74
2021/08/14 11:22:27;;;;;;;;;;;28.60;99.90;;;;;;4935484;29;19926;-74
2021/08/14 11:24:54;;;;;;;;;;;28.50;99.90;;;;;;4946235;29;19930;-74
2021/08/14 11:27:27;;;;;;;;;;;28.50;99.90;;;;;;4933956;29;19927;-74
2021/08/14 11:30:00;;;;;;;;;;;28.50;99.90;;;;;;4948242;29;19927;-74
2021/08/14 11:32:27;;;;;;;;;;;28.60;99.90;;;;;;4916202;29;19927;-74
2021/08/14 11:34:54;;;;;;;;;;;28.60;99.90;;;;;;4931867;29;20054;-74
2021/08/14 11:37:22;;;;;;;;;;;28.60;99.90;;;;;;4925601;29;20586;-74
2021/08/14 11:39:56;;;;;;;;;;;28.60;99.90;;;;;;4944908;29;19958;-74
2021/08/14 11:42:24;;;;;;;;;;;28.70;99.90;;;;;;4933524;29;20312;-74
2021/08/14 11:44:57;;;;;;;;;;;28.80;99.90;;;;;;4933014;29;19934;-74
2021/08/14 11:47:31;;;;;;;;;;;28.90;99.90;;;;;;4938089;28;19927;-74
2021/08/14 11:50:04;;;;;;;;;;;29.00;99.90;;;;;;4917846;29;19934;-74
2021/08/14 11:52:36;;;;;;;;;;;29.00;99.90;;;;;;4932966;29;20022;-74
2021/08/14 11:55:09;;;;;;;;;;;28.90;99.90;;;;;;4932828;29;19931;-74
2021/08/14 11:57:41;;;;;;;;;;;29.00;99.90;;;;;;4933842;29;20400;-74
2021/08/14 12:00:22;;;;;;;;;;;29.00;99.90;;;;;;4933861;29;19949;-73
2021/08/14 12:03:02;;;;;;;;;;;29.20;99.90;;;;;;4932916;29;20312;-75
2021/08/14 12:05:28;;;;;;;;;;;29.30;99.90;;;;;;4949472;29;20018;-74
2021/08/14 12:08:01;;;;;;;;;;;29.40;99.90;;;;;;4946960;29;20491;-74
2021/08/14 12:10:33;;;;;;;;;;;29.50;99.90;;;;;;4933597;29;20025;-75
2021/08/14 12:13:00;;;;;;;;;;;29.50;99.90;;;;;;4933116;29;19974;-75
2021/08/14 12:15:38;;;;;;;;;;;29.60;99.90;;;;;;4933019;29;20417;-75
2021/08/14 12:18:05;;;;;;;;;;;29.70;99.90;;;;;;4934618;29;19927;-74
2021/08/14 12:20:32;;;;;;;;;;;29.70;99.90;;;;;;4917647;29;19982;-75
2021/08/14 12:23:24;;;;;;;;;;;29.70;99.90;;;;;;4917251;29;20745;-74
2021/08/14 12:25:57;;;;;;;;;;;29.70;99.90;;;;;;4918086;29;19927;-75
2021/08/14 12:28:30;;;;;;;;;;;29.70;99.90;;;;;;4932814;29;19931;-75
2021/08/14 12:31:14;;;;;;;;;;;29.70;99.90;;;;;;4947738;29;19927;-75
2021/08/14 12:33:46;;;;;;;;;;;29.60;99.90;;;;;;4930347;29;20021;-75
2021/08/14 12:36:31;;;;;;;;;;;29.60;99.90;;;;;;4948159;29;19931;-74
2021/08/14 12:38:58;;;;;;;;;;;29.70;99.90;;;;;;5039468;23;20013;-86
2021/08/14 12:41:37;;;;;;;;;;;29.80;99.90;;;;;;4975521;28;19926;-89
2021/08/14 12:44:12;;;;;;;;;;;29.90;99.90;;;;;;4959487;28;20204;-88
2021/08/14 12:46:43;;;;;;;;;;;30.00;99.90;;;;;;4955587;28;19927;-89
2021/08/14 12:49:17;;;;;;;;;;;29.90;99.90;;;;;;4970827;28;19926;-88
2021/08/14 12:51:59;;;;;;;;;;;29.80;99.90;;;;;;4956435;28;19926;-89
2021/08/14 12:54:49;;;;;;;;;;;29.80;99.90;;;;;;4972859;28;20257;-89
2021/08/14 12:57:21;;;;;;;;;;;29.80;99.90;;;;;;4956183;28;19941;-90
2021/08/14 12:59:48;;;;;;;;;;;29.70;99.90;;;;;;4952512;28;19949;-90
2021/08/14 13:02:15;;;;;;;;;;;29.50;99.90;;;;;;4958433;28;19926;-90
2021/08/14 13:04:41;;;;;;;;;;;29.40;99.90;;;;;;4952362;28;19936;-90
2021/08/14 13:07:08;;;;;;;;;;;29.40;99.90;;;;;;4954930;28;19930;-90
2021/08/14 13:09:36;;;;;;;;;;;29.30;99.90;;;;;;4956577;28;19927;-89
2021/08/14 13:12:03;;;;;;;;;;;29.30;99.90;;;;;;4975600;28;20320;-90
2021/08/14 13:14:29;;;;;;;;;;;29.30;99.90;;;;;;4959155;28;19933;-90
2021/08/14 13:16:57;;;;;;;;;;;29.40;99.90;;;;;;4975534;28;20320;-89
2021/08/14 13:19:24;;;;;;;;;;;29.40;99.90;;;;;;4962744;28;19926;-89
2021/08/14 13:21:51;;;;;;;;;;;29.50;99.90;;;;;;4957727;28;19926;-89
2021/08/14 13:24:18;;;;;;;;;;;29.50;99.90;;;;;;4961960;28;19926;-90
2021/08/14 13:26:47;;;;;;;;;;;29.70;99.90;;;;;;4959203;28;19935;-89
2021/08/14 13:29:19;;;;;;;;;;;30.00;99.90;;;;;;4977173;28;20440;-89
2021/08/14 13:31:45;;;;;;;;;;;30.20;99.90;;;;;;4976281;28;19936;-89
2021/08/14 13:34:13;;;;;;;;;;;30.20;99.90;;;;;;4960382;28;19926;-89
2021/08/14 13:36:39;;;;;;;;;;;30.30;99.90;;;;;;4973098;28;20297;-89
2021/08/14 13:39:07;;;;;;;;;;;30.20;99.90;;;;;;4975696;28;19930;-89
2021/08/14 13:41:34;;;;;;;;;;;30.20;99.90;;;;;;4975268;28;20411;-90
2021/08/14 13:44:04;;;;;;;;;;;30.10;99.90;;;;;;4975506;28;19926;-88
2021/08/14 13:46:31;;;;;;;;;;;30.10;99.90;;;;;;4959238;28;19932;-89
2021/08/14 13:48:58;;;;;;;;;;;30.10;99.90;;;;;;4976290;28;20016;-90
2021/08/14 13:51:24;;;;;;;;;;;30.20;99.90;;;;;;4977277;28;20296;-91
2021/08/14 13:53:51;;;;;;;;;;;30.30;99.10;;;;;;4960397;28;19929;-90
2021/08/14 13:56:18;;;;;;;;;;;30.20;99.90;;;;;;4960549;28;19926;-90
2021/08/14 13:58:44;;;;;;;;;;;30.20;98.40;;;;;;4975677;28;20313;-89
2021/08/14 14:01:11;;;;;;;;;;;30.20;99.60;;;;;;4954773;28;19931;-89
2021/08/14 14:03:38;;;;;;;;;;;30.30;98.70;;;;;;4954529;28;19926;-89
2021/08/14 14:06:05;;;;;;;;;;;30.50;99.10;;;;;;4951613;28;19926;-91
2021/08/14 14:08:31;;;;;;;;;;;30.80;99.90;;;;;;4960166;28;19930;-90
2021/08/14 14:10:58;;;;;;;;;;;31.00;98.20;;;;;;4959451;28;19950;-88
2021/08/14 14:13:30;;;;;;;;;;;31.10;96.70;;;;;;4974979;28;19934;-88
2021/08/14 14:15:56;;;;;;;;;;;31.30;96.20;;;;;;4963954;28;19934;-90
2021/08/14 14:18:23;;;;;;;;;;;31.40;95.90;;;;;;4979101;28;19934;-89
2021/08/14 14:20:50;;;;;;;;;;;31.50;95.60;;;;;;4961433;28;19932;-89
2021/08/14 14:23:16;;;;;;;;;;;31.70;94.90;;;;;;4960339;28;20009;-89
2021/08/14 14:25:43;;;;;;;;;;;31.90;96.10;;;;;;4959099;29;19937;-89
2021/08/14 14:28:09;;;;;;;;;;;32.00;95.50;;;;;;4976049;28;19928;-90
2021/08/14 14:30:36;;;;;;;;;;;32.00;94.30;;;;;;4960953;28;20393;-89
2021/08/14 14:33:03;;;;;;;;;;;32.00;94.30;;;;;;4965339;28;19933;-89
2021/08/14 14:35:35;;;;;;;;;;;32.00;93.80;;;;;;4963694;28;20380;-90
2021/08/14 14:38:02;;;;;;;;;;;32.10;94.20;;;;;;4961358;28;19936;-91
2021/08/14 14:40:34;;;;;;;;;;;32.20;93.50;;;;;;4976798;28;19933;-89
2021/08/14 14:43:01;;;;;;;;;;;32.30;94.90;;;;;;4963899;28;19926;-90
2021/08/14 14:45:27;;;;;;;;;;;32.30;93.30;;;;;;4964854;28;19926;-90
2021/08/14 14:47:54;;;;;;;;;;;32.40;94.20;;;;;;4963834;28;19926;-89